sensor_id;sensor_type;location;lat;lon;timestamp;P1;durP1;ratioP1;P2;durP2;ratioP2
71176;SDS011;58877;51.992;4.504;2022-08-19T00:01:27;5.15;;;5.15;;
71176;SDS011;58877;51.992;4.504;2022-08-19T00:03:55;5.52;;;5.52;;
71176;SDS011;58877;51.992;4.504;2022-08-19T00:06:34;4.93;;;4.93;;
71176;SDS011;58877;51.992;4.504;2022-08-19T00:09:02;4.48;;;4.48;;
71176;SDS011;58877;51.992;4.504;2022-08-19T00:11:30;4.62;;;4.62;;
71176;SDS011;58877;51.992;4.504;2022-08-19T00:13:55;4.85;;;4.85;;
71176;SDS011;58877;51.992;4.504;2022-08-19T00:16:22;5.03;;;5.03;;
71176;SDS011;58877;51.992;4.504;2022-08-19T00:18:49;4.66;;;4.66;;
71176;SDS011;58877;51.992;4.504;2022-08-19T00:21:17;4.83;;;4.83;;
71176;SDS011;58877;51.992;4.504;2022-08-19T00:23:43;4.48;;;4.48;;
71176;SDS011;58877;51.992;4.504;2022-08-19T00:26:09;4.59;;;4.59;;
71176;SDS011;58877;51.992;4.504;2022-08-19T00:28:36;4.03;;;4.03;;
71176;SDS011;58877;51.992;4.504;2022-08-19T00:31:05;4.48;;;4.48;;
71176;SDS011;58877;51.992;4.504;2022-08-19T00:33:32;4.70;;;4.70;;
71176;SDS011;58877;51.992;4.504;2022-08-19T00:35:59;4.92;;;4.92;;
71176;SDS011;58877;51.992;4.504;2022-08-19T00:38:25;5.13;;;5.13;;
71176;SDS011;58877;51.992;4.504;2022-08-19T00:40:52;4.70;;;4.70;;
71176;SDS011;58877;51.992;4.504;2022-08-19T00:43:19;4.96;;;4.96;;
71176;SDS011;58877;51.992;4.504;2022-08-19T00:45:47;4.54;;;4.54;;
71176;SDS011;58877;51.992;4.504;2022-08-19T00:48:13;4.85;;;4.85;;
71176;SDS011;58877;51.992;4.504;2022-08-19T00:50:41;5.34;;;5.34;;
71176;SDS011;58877;51.992;4.504;2022-08-19T00:53:12;5.23;;;5.23;;
71176;SDS011;58877;51.992;4.504;2022-08-19T00:55:45;5.69;;;5.69;;
71176;SDS011;58877;51.992;4.504;2022-08-19T00:58:13;5.81;;;5.81;;
71176;SDS011;58877;51.992;4.504;2022-08-19T01:00:47;5.39;;;5.39;;
71176;SDS011;58877;51.992;4.504;2022-08-19T01:03:19;5.24;;;5.24;;
71176;SDS011;58877;51.992;4.504;2022-08-19T01:05:46;5.56;;;5.56;;
71176;SDS011;58877;51.992;4.504;2022-08-19T01:08:15;5.26;;;5.26;;
71176;SDS011;58877;51.992;4.504;2022-08-19T01:13:14;5.05;;;5.05;;
71176;SDS011;58877;51.992;4.504;2022-08-19T01:15:43;4.96;;;4.96;;
71176;SDS011;58877;51.992;4.504;2022-08-19T01:18:15;5.48;;;5.48;;
71176;SDS011;58877;51.992;4.504;2022-08-19T01:20:44;5.51;;;5.51;;
71176;SDS011;58877;51.992;4.504;2022-08-19T01:23:13;5.51;;;5.51;;
71176;SDS011;58877;51.992;4.504;2022-08-19T01:25:51;5.39;;;5.39;;
71176;SDS011;58877;51.992;4.504;2022-08-19T01:28:20;5.69;;;5.69;;
71176;SDS011;58877;51.992;4.504;2022-08-19T01:31:02;5.61;;;5.61;;
71176;SDS011;58877;51.992;4.504;2022-08-19T01:33:36;6.03;;;6.03;;
71176;SDS011;58877;51.992;4.504;2022-08-19T01:36:08;6.00;;;6.00;;
71176;SDS011;58877;51.992;4.504;2022-08-19T01:38:42;6.23;;;6.23;;
71176;SDS011;58877;51.992;4.504;2022-08-19T01:41:11;5.66;;;5.66;;
71176;SDS011;58877;51.992;4.504;2022-08-19T01:43:40;5.56;;;5.56;;
71176;SDS011;58877;51.992;4.504;2022-08-19T01:46:08;6.19;;;6.19;;
71176;SDS011;58877;51.992;4.504;2022-08-19T01:48:39;5.99;;;5.99;;
71176;SDS011;58877;51.992;4.504;2022-08-19T01:51:07;6.54;;;6.54;;
71176;SDS011;58877;51.992;4.504;2022-08-19T01:53:34;7.42;;;7.42;;
71176;SDS011;58877;51.992;4.504;2022-08-19T01:56:01;7.90;;;7.90;;
71176;SDS011;58877;51.992;4.504;2022-08-19T01:58:29;8.83;;;8.83;;
71176;SDS011;58877;51.992;4.504;2022-08-19T02:01:08;9.94;;;9.94;;
71176;SDS011;58877;51.992;4.504;2022-08-19T02:03:36;10.39;;;10.39;;
71176;SDS011;58877;51.992;4.504;2022-08-19T02:06:02;11.55;;;11.55;;
71176;SDS011;58877;51.992;4.504;2022-08-19T02:08:31;10.36;;;10.36;;
71176;SDS011;58877;51.992;4.504;2022-08-19T02:11:04;10.39;;;10.39;;
71176;SDS011;58877;51.992;4.504;2022-08-19T02:13:32;10.72;;;10.72;;
71176;SDS011;58877;51.992;4.504;2022-08-19T02:15:59;10.95;;;10.93;;
71176;SDS011;58877;51.992;4.504;2022-08-19T02:18:26;11.38;;;11.28;;
71176;SDS011;58877;51.992;4.504;2022-08-19T02:20:51;11.60;;;11.60;;
71176;SDS011;58877;51.992;4.504;2022-08-19T02:23:17;12.90;;;12.89;;
71176;SDS011;58877;51.992;4.504;2022-08-19T02:25:46;12.84;;;12.83;;
71176;SDS011;58877;51.992;4.504;2022-08-19T02:28:13;13.33;;;13.33;;
71176;SDS011;58877;51.992;4.504;2022-08-19T02:30:40;14.08;;;13.98;;
71176;SDS011;58877;51.992;4.504;2022-08-19T02:33:07;13.99;;;13.90;;
71176;SDS011;58877;51.992;4.504;2022-08-19T02:35:40;14.68;;;14.58;;
71176;SDS011;58877;51.992;4.504;2022-08-19T02:38:10;14.31;;;14.26;;
71176;SDS011;58877;51.992;4.504;2022-08-19T02:40:55;14.14;;;14.02;;
71176;SDS011;58877;51.992;4.504;2022-08-19T02:43:24;14.81;;;14.80;;
71176;SDS011;58877;51.992;4.504;2022-08-19T02:45:51;15.06;;;15.05;;
71176;SDS011;58877;51.992;4.504;2022-08-19T02:48:21;15.78;;;15.76;;
71176;SDS011;58877;51.992;4.504;2022-08-19T02:50:49;16.59;;;16.58;;
71176;SDS011;58877;51.992;4.504;2022-08-19T02:53:24;16.27;;;16.12;;
71176;SDS011;58877;51.992;4.504;2022-08-19T02:56:06;17.17;;;17.11;;
71176;SDS011;58877;51.992;4.504;2022-08-19T02:58:33;16.95;;;16.80;;
71176;SDS011;58877;51.992;4.504;2022-08-19T03:01:02;16.87;;;16.77;;
71176;SDS011;58877;51.992;4.504;2022-08-19T03:03:28;16.85;;;16.80;;
71176;SDS011;58877;51.992;4.504;2022-08-19T03:06:09;17.57;;;17.41;;
71176;SDS011;58877;51.992;4.504;2022-08-19T03:08:38;18.26;;;18.13;;
71176;SDS011;58877;51.992;4.504;2022-08-19T03:11:17;17.24;;;17.19;;
71176;SDS011;58877;51.992;4.504;2022-08-19T03:13:43;17.99;;;17.86;;
71176;SDS011;58877;51.992;4.504;2022-08-19T03:16:10;18.01;;;17.85;;
71176;SDS011;58877;51.992;4.504;2022-08-19T03:18:38;18.16;;;18.05;;
71176;SDS011;58877;51.992;4.504;2022-08-19T03:21:03;18.79;;;18.73;;
71176;SDS011;58877;51.992;4.504;2022-08-19T03:23:31;19.57;;;19.42;;
71176;SDS011;58877;51.992;4.504;2022-08-19T03:25:56;19.55;;;19.48;;
71176;SDS011;58877;51.992;4.504;2022-08-19T03:28:22;19.16;;;19.02;;
71176;SDS011;58877;51.992;4.504;2022-08-19T03:30:58;18.81;;;18.76;;
71176;SDS011;58877;51.992;4.504;2022-08-19T03:33:26;19.06;;;18.87;;
71176;SDS011;58877;51.992;4.504;2022-08-19T03:36:01;19.34;;;19.20;;
71176;SDS011;58877;51.992;4.504;2022-08-19T03:38:34;19.16;;;19.12;;
71176;SDS011;58877;51.992;4.504;2022-08-19T03:41:14;18.54;;;18.45;;
71176;SDS011;58877;51.992;4.504;2022-08-19T03:43:46;19.55;;;19.45;;
71176;SDS011;58877;51.992;4.504;2022-08-19T03:46:18;19.45;;;19.29;;
71176;SDS011;58877;51.992;4.504;2022-08-19T03:48:49;19.29;;;19.18;;
71176;SDS011;58877;51.992;4.504;2022-08-19T03:51:30;20.03;;;19.83;;
71176;SDS011;58877;51.992;4.504;2022-08-19T03:53:59;20.00;;;19.85;;
71176;SDS011;58877;51.992;4.504;2022-08-19T03:56:27;19.40;;;19.31;;
71176;SDS011;58877;51.992;4.504;2022-08-19T03:58:58;20.23;;;20.15;;
71176;SDS011;58877;51.992;4.504;2022-08-19T04:01:30;21.42;;;21.28;;
71176;SDS011;58877;51.992;4.504;2022-08-19T04:03:56;20.78;;;20.64;;
71176;SDS011;58877;51.992;4.504;2022-08-19T04:06:24;22.40;;;22.16;;
71176;SDS011;58877;51.992;4.504;2022-08-19T04:08:53;23.09;;;22.80;;
71176;SDS011;58877;51.992;4.504;2022-08-19T04:11:24;23.00;;;22.78;;
71176;SDS011;58877;51.992;4.504;2022-08-19T04:13:52;23.29;;;23.00;;
71176;SDS011;58877;51.992;4.504;2022-08-19T04:16:20;23.98;;;23.68;;
71176;SDS011;58877;51.992;4.504;2022-08-19T04:18:48;24.95;;;24.46;;
71176;SDS011;58877;51.992;4.504;2022-08-19T04:21:16;25.97;;;25.34;;
71176;SDS011;58877;51.992;4.504;2022-08-19T04:23:45;27.49;;;26.96;;
71176;SDS011;58877;51.992;4.504;2022-08-19T04:26:18;26.49;;;26.14;;
71176;SDS011;58877;51.992;4.504;2022-08-19T04:28:46;28.55;;;27.96;;
71176;SDS011;58877;51.992;4.504;2022-08-19T04:31:16;28.78;;;28.05;;
71176;SDS011;58877;51.992;4.504;2022-08-19T04:33:44;27.29;;;26.43;;
71176;SDS011;58877;51.992;4.504;2022-08-19T04:36:20;26.44;;;25.69;;
71176;SDS011;58877;51.992;4.504;2022-08-19T04:38:48;25.96;;;25.24;;
71176;SDS011;58877;51.992;4.504;2022-08-19T04:41:19;27.12;;;26.22;;
71176;SDS011;58877;51.992;4.504;2022-08-19T04:44:03;26.90;;;26.03;;
71176;SDS011;58877;51.992;4.504;2022-08-19T04:46:30;26.96;;;26.26;;
71176;SDS011;58877;51.992;4.504;2022-08-19T04:49:00;27.66;;;26.80;;
71176;SDS011;58877;51.992;4.504;2022-08-19T04:51:28;27.06;;;26.23;;
71176;SDS011;58877;51.992;4.504;2022-08-19T04:53:56;27.77;;;26.79;;
71176;SDS011;58877;51.992;4.504;2022-08-19T04:56:25;27.70;;;26.64;;
71176;SDS011;58877;51.992;4.504;2022-08-19T04:58:52;28.45;;;27.20;;
71176;SDS011;58877;51.992;4.504;2022-08-19T05:01:23;26.98;;;25.99;;
71176;SDS011;58877;51.992;4.504;2022-08-19T05:03:57;26.95;;;26.15;;
71176;SDS011;58877;51.992;4.504;2022-08-19T05:06:26;26.42;;;25.68;;
71176;SDS011;58877;51.992;4.504;2022-08-19T05:08:53;25.81;;;24.95;;
71176;SDS011;58877;51.992;4.504;2022-08-19T05:11:25;24.70;;;24.23;;
71176;SDS011;58877;51.992;4.504;2022-08-19T05:13:56;27.19;;;25.91;;
71176;SDS011;58877;51.992;4.504;2022-08-19T05:16:23;26.73;;;25.93;;
71176;SDS011;58877;51.992;4.504;2022-08-19T05:18:51;24.89;;;24.43;;
71176;SDS011;58877;51.992;4.504;2022-08-19T05:21:36;25.87;;;25.40;;
71176;SDS011;58877;51.992;4.504;2022-08-19T05:24:22;26.05;;;25.50;;
71176;SDS011;58877;51.992;4.504;2022-08-19T05:26:49;26.29;;;25.80;;
71176;SDS011;58877;51.992;4.504;2022-08-19T05:29:18;25.87;;;25.57;;
71176;SDS011;58877;51.992;4.504;2022-08-19T05:31:45;25.40;;;25.11;;
71176;SDS011;58877;51.992;4.504;2022-08-19T05:34:14;26.07;;;25.59;;
71176;SDS011;58877;51.992;4.504;2022-08-19T05:36:48;25.13;;;24.82;;
71176;SDS011;58877;51.992;4.504;2022-08-19T05:39:20;25.22;;;25.01;;
71176;SDS011;58877;51.992;4.504;2022-08-19T05:42:00;26.39;;;26.15;;
71176;SDS011;58877;51.992;4.504;2022-08-19T05:44:33;25.59;;;25.30;;
71176;SDS011;58877;51.992;4.504;2022-08-19T05:47:13;24.56;;;24.37;;
71176;SDS011;58877;51.992;4.504;2022-08-19T05:49:40;24.94;;;24.75;;
71176;SDS011;58877;51.992;4.504;2022-08-19T05:52:08;23.65;;;23.54;;
71176;SDS011;58877;51.992;4.504;2022-08-19T05:54:38;24.33;;;24.18;;
71176;SDS011;58877;51.992;4.504;2022-08-19T05:57:10;22.65;;;22.61;;
71176;SDS011;58877;51.992;4.504;2022-08-19T05:59:39;22.81;;;22.76;;
71176;SDS011;58877;51.992;4.504;2022-08-19T06:02:05;21.90;;;21.78;;
71176;SDS011;58877;51.992;4.504;2022-08-19T06:04:32;21.41;;;21.27;;
71176;SDS011;58877;51.992;4.504;2022-08-19T06:06:58;20.82;;;20.74;;
71176;SDS011;58877;51.992;4.504;2022-08-19T06:09:32;21.96;;;21.87;;
71176;SDS011;58877;51.992;4.504;2022-08-19T06:11:59;21.44;;;21.33;;
71176;SDS011;58877;51.992;4.504;2022-08-19T06:14:28;21.80;;;21.77;;
71176;SDS011;58877;51.992;4.504;2022-08-19T06:16:56;23.45;;;23.33;;
71176;SDS011;58877;51.992;4.504;2022-08-19T06:19:26;22.95;;;22.81;;
71176;SDS011;58877;51.992;4.504;2022-08-19T06:21:55;23.31;;;23.23;;
71176;SDS011;58877;51.992;4.504;2022-08-19T06:24:23;22.82;;;22.72;;
71176;SDS011;58877;51.992;4.504;2022-08-19T06:26:51;23.02;;;22.97;;
71176;SDS011;58877;51.992;4.504;2022-08-19T06:29:20;21.92;;;21.86;;
71176;SDS011;58877;51.992;4.504;2022-08-19T06:31:57;22.08;;;21.99;;
71176;SDS011;58877;51.992;4.504;2022-08-19T06:34:32;21.74;;;21.73;;
71176;SDS011;58877;51.992;4.504;2022-08-19T06:37:00;21.52;;;21.50;;
71176;SDS011;58877;51.992;4.504;2022-08-19T06:39:29;21.19;;;21.16;;
71176;SDS011;58877;51.992;4.504;2022-08-19T06:42:07;21.11;;;21.01;;
71176;SDS011;58877;51.992;4.504;2022-08-19T06:44:41;21.18;;;21.17;;
71176;SDS011;58877;51.992;4.504;2022-08-19T06:47:11;20.82;;;20.81;;
71176;SDS011;58877;51.992;4.504;2022-08-19T06:49:38;20.45;;;20.40;;
71176;SDS011;58877;51.992;4.504;2022-08-19T06:52:08;20.41;;;20.37;;
71176;SDS011;58877;51.992;4.504;2022-08-19T06:54:39;20.39;;;20.39;;
71176;SDS011;58877;51.992;4.504;2022-08-19T06:57:09;20.97;;;20.89;;
71176;SDS011;58877;51.992;4.504;2022-08-19T06:59:40;21.99;;;21.85;;
71176;SDS011;58877;51.992;4.504;2022-08-19T07:02:05;22.40;;;22.28;;
71176;SDS011;58877;51.992;4.504;2022-08-19T07:04:32;22.31;;;22.23;;
71176;SDS011;58877;51.992;4.504;2022-08-19T07:07:06;22.25;;;22.21;;
71176;SDS011;58877;51.992;4.504;2022-08-19T07:09:36;22.44;;;22.39;;
71176;SDS011;58877;51.992;4.504;2022-08-19T07:12:04;22.36;;;22.33;;
71176;SDS011;58877;51.992;4.504;2022-08-19T07:14:32;22.32;;;22.32;;
71176;SDS011;58877;51.992;4.504;2022-08-19T07:17:03;21.62;;;21.62;;
71176;SDS011;58877;51.992;4.504;2022-08-19T07:19:34;19.55;;;19.55;;
71176;SDS011;58877;51.992;4.504;2022-08-19T07:22:01;19.29;;;19.29;;
71176;SDS011;58877;51.992;4.504;2022-08-19T07:24:28;20.56;;;20.47;;
71176;SDS011;58877;51.992;4.504;2022-08-19T07:26:56;18.79;;;18.69;;
71176;SDS011;58877;51.992;4.504;2022-08-19T07:29:27;19.47;;;19.46;;
71176;SDS011;58877;51.992;4.504;2022-08-19T07:31:55;18.62;;;18.55;;
71176;SDS011;58877;51.992;4.504;2022-08-19T07:34:23;17.46;;;17.46;;
71176;SDS011;58877;51.992;4.504;2022-08-19T07:36:51;18.29;;;18.28;;
71176;SDS011;58877;51.992;4.504;2022-08-19T07:39:28;17.71;;;17.70;;
71176;SDS011;58877;51.992;4.504;2022-08-19T07:42:10;16.17;;;16.16;;
71176;SDS011;58877;51.992;4.504;2022-08-19T07:44:36;16.35;;;16.35;;
71176;SDS011;58877;51.992;4.504;2022-08-19T07:47:03;15.68;;;15.67;;
71176;SDS011;58877;51.992;4.504;2022-08-19T07:49:29;14.89;;;14.89;;
71176;SDS011;58877;51.992;4.504;2022-08-19T07:51:56;14.72;;;14.71;;
71176;SDS011;58877;51.992;4.504;2022-08-19T07:54:27;14.53;;;14.53;;
71176;SDS011;58877;51.992;4.504;2022-08-19T07:56:56;15.63;;;15.63;;
71176;SDS011;58877;51.992;4.504;2022-08-19T07:59:22;15.77;;;15.76;;
71176;SDS011;58877;51.992;4.504;2022-08-19T08:01:48;15.81;;;15.80;;
71176;SDS011;58877;51.992;4.504;2022-08-19T08:04:15;15.49;;;15.49;;
71176;SDS011;58877;51.992;4.504;2022-08-19T08:07:02;14.09;;;14.09;;
71176;SDS011;58877;51.992;4.504;2022-08-19T08:09:47;13.96;;;13.96;;
71176;SDS011;58877;51.992;4.504;2022-08-19T08:12:20;14.23;;;14.23;;
71176;SDS011;58877;51.992;4.504;2022-08-19T08:14:54;13.68;;;13.68;;
71176;SDS011;58877;51.992;4.504;2022-08-19T08:17:28;13.02;;;13.02;;
71176;SDS011;58877;51.992;4.504;2022-08-19T08:19:54;11.94;;;11.94;;
71176;SDS011;58877;51.992;4.504;2022-08-19T08:22:21;11.88;;;11.87;;
71176;SDS011;58877;51.992;4.504;2022-08-19T08:25:07;11.11;;;11.11;;
71176;SDS011;58877;51.992;4.504;2022-08-19T08:27:37;11.42;;;11.42;;
71176;SDS011;58877;51.992;4.504;2022-08-19T08:30:08;11.66;;;11.66;;
71176;SDS011;58877;51.992;4.504;2022-08-19T08:32:35;10.96;;;10.96;;
71176;SDS011;58877;51.992;4.504;2022-08-19T08:35:04;10.24;;;10.23;;
71176;SDS011;58877;51.992;4.504;2022-08-19T08:37:31;9.98;;;9.98;;
71176;SDS011;58877;51.992;4.504;2022-08-19T08:39:57;9.95;;;9.95;;
71176;SDS011;58877;51.992;4.504;2022-08-19T08:42:27;10.02;;;10.02;;
71176;SDS011;58877;51.992;4.504;2022-08-19T08:45:00;9.87;;;9.87;;
71176;SDS011;58877;51.992;4.504;2022-08-19T08:47:41;8.61;;;8.61;;
71176;SDS011;58877;51.992;4.504;2022-08-19T08:52:48;8.43;;;8.43;;
71176;SDS011;58877;51.992;4.504;2022-08-19T08:55:23;8.03;;;8.02;;
71176;SDS011;58877;51.992;4.504;2022-08-19T08:58:01;7.48;;;7.48;;
71176;SDS011;58877;51.992;4.504;2022-08-19T09:00:32;7.39;;;7.39;;
71176;SDS011;58877;51.992;4.504;2022-08-19T09:03:02;7.55;;;7.55;;
71176;SDS011;58877;51.992;4.504;2022-08-19T09:05:50;7.13;;;7.13;;
71176;SDS011;58877;51.992;4.504;2022-08-19T09:17:10;7.86;;;7.86;;
71176;SDS011;58877;51.992;4.504;2022-08-19T09:20:13;6.95;;;6.95;;
71176;SDS011;58877;51.992;4.504;2022-08-19T09:22:36;6.62;;;6.62;;
71176;SDS011;58877;51.992;4.504;2022-08-19T09:25:03;6.57;;;6.57;;
71176;SDS011;58877;51.992;4.504;2022-08-19T09:27:30;6.95;;;6.95;;
71176;SDS011;58877;51.992;4.504;2022-08-19T09:29:56;6.48;;;6.48;;
71176;SDS011;58877;51.992;4.504;2022-08-19T09:32:22;6.25;;;6.25;;
71176;SDS011;58877;51.992;4.504;2022-08-19T09:34:48;5.60;;;5.60;;
71176;SDS011;58877;51.992;4.504;2022-08-19T09:37:14;6.27;;;6.27;;
71176;SDS011;58877;51.992;4.504;2022-08-19T09:39:39;6.01;;;6.01;;
71176;SDS011;58877;51.992;4.504;2022-08-19T09:42:06;6.31;;;6.31;;
71176;SDS011;58877;51.992;4.504;2022-08-19T09:44:40;6.06;;;6.06;;
71176;SDS011;58877;51.992;4.504;2022-08-19T09:47:07;6.28;;;6.28;;
71176;SDS011;58877;51.992;4.504;2022-08-19T09:49:34;6.29;;;6.29;;
71176;SDS011;58877;51.992;4.504;2022-08-19T09:54:52;6.71;;;6.71;;
71176;SDS011;58877;51.992;4.504;2022-08-19T09:57:18;6.61;;;6.61;;
71176;SDS011;58877;51.992;4.504;2022-08-19T09:59:43;5.93;;;5.93;;
71176;SDS011;58877;51.992;4.504;2022-08-19T10:02:10;5.13;;;5.13;;
71176;SDS011;58877;51.992;4.504;2022-08-19T10:04:38;4.23;;;4.23;;
71176;SDS011;58877;51.992;4.504;2022-08-19T10:07:22;4.03;;;4.03;;
71176;SDS011;58877;51.992;4.504;2022-08-19T10:09:47;3.98;;;3.98;;
71176;SDS011;58877;51.992;4.504;2022-08-19T10:12:13;3.75;;;3.75;;
71176;SDS011;58877;51.992;4.504;2022-08-19T10:14:40;4.08;;;4.08;;
71176;SDS011;58877;51.992;4.504;2022-08-19T10:17:06;4.34;;;4.34;;
71176;SDS011;58877;51.992;4.504;2022-08-19T10:19:31;4.58;;;4.58;;
71176;SDS011;58877;51.992;4.504;2022-08-19T10:22:04;5.08;;;5.08;;
71176;SDS011;58877;51.992;4.504;2022-08-19T10:24:32;4.93;;;4.93;;
71176;SDS011;58877;51.992;4.504;2022-08-19T10:27:00;5.34;;;5.34;;
71176;SDS011;58877;51.992;4.504;2022-08-19T10:29:29;6.15;;;6.15;;
71176;SDS011;58877;51.992;4.504;2022-08-19T10:31:55;4.30;;;4.30;;
71176;SDS011;58877;51.992;4.504;2022-08-19T10:34:24;2.97;;;2.97;;
71176;SDS011;58877;51.992;4.504;2022-08-19T10:36:50;2.74;;;2.74;;
71176;SDS011;58877;51.992;4.504;2022-08-19T10:39:16;2.84;;;2.84;;
71176;SDS011;58877;51.992;4.504;2022-08-19T10:41:42;2.45;;;2.45;;
71176;SDS011;58877;51.992;4.504;2022-08-19T10:44:10;2.52;;;2.52;;
71176;SDS011;58877;51.992;4.504;2022-08-19T10:46:41;2.92;;;2.92;;
71176;SDS011;58877;51.992;4.504;2022-08-19T10:49:10;2.76;;;2.76;;
71176;SDS011;58877;51.992;4.504;2022-08-19T10:51:37;2.52;;;2.52;;
71176;SDS011;58877;51.992;4.504;2022-08-19T10:54:23;2.43;;;2.43;;
71176;SDS011;58877;51.992;4.504;2022-08-19T10:57:09;2.29;;;2.29;;
71176;SDS011;58877;51.992;4.504;2022-08-19T10:59:35;2.32;;;2.32;;
71176;SDS011;58877;51.992;4.504;2022-08-19T11:02:03;2.31;;;2.31;;
71176;SDS011;58877;51.992;4.504;2022-08-19T11:04:32;1.94;;;1.94;;
71176;SDS011;58877;51.992;4.504;2022-08-19T11:06:58;1.68;;;1.68;;
71176;SDS011;58877;51.992;4.504;2022-08-19T11:09:27;1.93;;;1.93;;
71176;SDS011;58877;51.992;4.504;2022-08-19T11:11:53;2.10;;;2.10;;
71176;SDS011;58877;51.992;4.504;2022-08-19T11:14:20;2.32;;;2.32;;
71176;SDS011;58877;51.992;4.504;2022-08-19T11:16:49;2.75;;;2.75;;
71176;SDS011;58877;51.992;4.504;2022-08-19T11:19:18;2.65;;;2.65;;
71176;SDS011;58877;51.992;4.504;2022-08-19T11:21:45;2.36;;;2.36;;
71176;SDS011;58877;51.992;4.504;2022-08-19T11:24:14;2.54;;;2.54;;
71176;SDS011;58877;51.992;4.504;2022-08-19T11:26:48;2.23;;;2.23;;
71176;SDS011;58877;51.992;4.504;2022-08-19T11:29:16;2.46;;;2.46;;
71176;SDS011;58877;51.992;4.504;2022-08-19T11:31:44;2.60;;;2.60;;
71176;SDS011;58877;51.992;4.504;2022-08-19T11:34:15;2.21;;;2.21;;
71176;SDS011;58877;51.992;4.504;2022-08-19T11:36:44;2.21;;;2.21;;
71176;SDS011;58877;51.992;4.504;2022-08-19T11:39:14;1.87;;;1.87;;
71176;SDS011;58877;51.992;4.504;2022-08-19T11:41:41;1.90;;;1.90;;
71176;SDS011;58877;51.992;4.504;2022-08-19T11:44:08;1.64;;;1.64;;
71176;SDS011;58877;51.992;4.504;2022-08-19T11:46:34;1.83;;;1.83;;
71176;SDS011;58877;51.992;4.504;2022-08-19T11:49:02;1.55;;;1.55;;
71176;SDS011;58877;51.992;4.504;2022-08-19T11:51:29;1.80;;;1.80;;
71176;SDS011;58877;51.992;4.504;2022-08-19T11:53:57;1.76;;;1.76;;
71176;SDS011;58877;51.992;4.504;2022-08-19T11:56:24;1.88;;;1.88;;
71176;SDS011;58877;51.992;4.504;2022-08-19T11:58:52;2.13;;;2.13;;
71176;SDS011;58877;51.992;4.504;2022-08-19T12:01:23;2.48;;;2.48;;
71176;SDS011;58877;51.992;4.504;2022-08-19T12:03:51;2.56;;;2.56;;
71176;SDS011;58877;51.992;4.504;2022-08-19T12:06:28;2.63;;;2.63;;
71176;SDS011;58877;51.992;4.504;2022-08-19T12:08:58;2.27;;;2.27;;
71176;SDS011;58877;51.992;4.504;2022-08-19T12:11:26;2.41;;;2.41;;
71176;SDS011;58877;51.992;4.504;2022-08-19T12:13:52;2.22;;;2.22;;
71176;SDS011;58877;51.992;4.504;2022-08-19T12:16:21;2.73;;;2.73;;
71176;SDS011;58877;51.992;4.504;2022-08-19T12:18:51;2.41;;;2.41;;
71176;SDS011;58877;51.992;4.504;2022-08-19T12:21:19;2.36;;;2.36;;
71176;SDS011;58877;51.992;4.504;2022-08-19T12:23:50;2.42;;;2.42;;
71176;SDS011;58877;51.992;4.504;2022-08-19T12:26:16;2.42;;;2.42;;
71176;SDS011;58877;51.992;4.504;2022-08-19T12:28:46;2.58;;;2.58;;
71176;SDS011;58877;51.992;4.504;2022-08-19T12:31:13;2.46;;;2.46;;
71176;SDS011;58877;51.992;4.504;2022-08-19T12:33:40;2.34;;;2.34;;
71176;SDS011;58877;51.992;4.504;2022-08-19T12:36:08;2.15;;;2.15;;
71176;SDS011;58877;51.992;4.504;2022-08-19T12:38:37;2.40;;;2.40;;
71176;SDS011;58877;51.992;4.504;2022-08-19T12:41:09;2.23;;;2.23;;
71176;SDS011;58877;51.992;4.504;2022-08-19T12:43:37;2.59;;;2.59;;
71176;SDS011;58877;51.992;4.504;2022-08-19T12:46:07;2.57;;;2.57;;
71176;SDS011;58877;51.992;4.504;2022-08-19T12:48:34;2.56;;;2.56;;
71176;SDS011;58877;51.992;4.504;2022-08-19T12:51:00;2.38;;;2.38;;
71176;SDS011;58877;51.992;4.504;2022-08-19T12:53:32;2.51;;;2.51;;
71176;SDS011;58877;51.992;4.504;2022-08-19T12:55:58;2.57;;;2.57;;
71176;SDS011;58877;51.992;4.504;2022-08-19T12:58:25;2.52;;;2.52;;
71176;SDS011;58877;51.992;4.504;2022-08-19T13:00:51;2.94;;;2.94;;
71176;SDS011;58877;51.992;4.504;2022-08-19T13:03:16;3.00;;;3.00;;
71176;SDS011;58877;51.992;4.504;2022-08-19T13:05:42;2.73;;;2.73;;
71176;SDS011;58877;51.992;4.504;2022-08-19T13:08:07;3.03;;;3.03;;
71176;SDS011;58877;51.992;4.504;2022-08-19T13:10:34;2.76;;;2.76;;
71176;SDS011;58877;51.992;4.504;2022-08-19T13:13:00;2.69;;;2.69;;
71176;SDS011;58877;51.992;4.504;2022-08-19T13:15:33;2.61;;;2.61;;
71176;SDS011;58877;51.992;4.504;2022-08-19T13:18:00;2.56;;;2.56;;
71176;SDS011;58877;51.992;4.504;2022-08-19T13:20:26;2.60;;;2.60;;
71176;SDS011;58877;51.992;4.504;2022-08-19T13:22:52;2.57;;;2.57;;
71176;SDS011;58877;51.992;4.504;2022-08-19T13:25:19;2.37;;;2.37;;
71176;SDS011;58877;51.992;4.504;2022-08-19T13:27:45;2.48;;;2.48;;
71176;SDS011;58877;51.992;4.504;2022-08-19T13:30:13;2.24;;;2.24;;
71176;SDS011;58877;51.992;4.504;2022-08-19T13:33:00;1.82;;;1.82;;
71176;SDS011;58877;51.992;4.504;2022-08-19T13:35:43;1.80;;;1.80;;
71176;SDS011;58877;51.992;4.504;2022-08-19T13:38:22;1.75;;;1.75;;
71176;SDS011;58877;51.992;4.504;2022-08-19T13:40:52;1.99;;;1.99;;
71176;SDS011;58877;51.992;4.504;2022-08-19T13:43:22;1.94;;;1.94;;
71176;SDS011;58877;51.992;4.504;2022-08-19T13:45:52;1.72;;;1.72;;
71176;SDS011;58877;51.992;4.504;2022-08-19T13:48:21;1.39;;;1.39;;
71176;SDS011;58877;51.992;4.504;2022-08-19T13:50:48;1.26;;;1.26;;
71176;SDS011;58877;51.992;4.504;2022-08-19T13:53:15;1.03;;;1.03;;
71176;SDS011;58877;51.992;4.504;2022-08-19T13:55:44;0.99;;;0.99;;
71176;SDS011;58877;51.992;4.504;2022-08-19T13:58:13;1.11;;;1.11;;
71176;SDS011;58877;51.992;4.504;2022-08-19T14:00:40;1.14;;;1.14;;
71176;SDS011;58877;51.992;4.504;2022-08-19T14:03:09;1.18;;;1.18;;
71176;SDS011;58877;51.992;4.504;2022-08-19T14:05:38;1.15;;;1.15;;
71176;SDS011;58877;51.992;4.504;2022-08-19T14:08:04;1.23;;;1.23;;
71176;SDS011;58877;51.992;4.504;2022-08-19T14:10:31;1.20;;;1.20;;
71176;SDS011;58877;51.992;4.504;2022-08-19T14:13:00;1.43;;;1.43;;
71176;SDS011;58877;51.992;4.504;2022-08-19T14:15:42;1.32;;;1.32;;
71176;SDS011;58877;51.992;4.504;2022-08-19T14:18:08;1.44;;;1.44;;
71176;SDS011;58877;51.992;4.504;2022-08-19T14:20:34;1.37;;;1.37;;
71176;SDS011;58877;51.992;4.504;2022-08-19T14:23:01;1.81;;;1.81;;
71176;SDS011;58877;51.992;4.504;2022-08-19T14:25:29;1.91;;;1.91;;
71176;SDS011;58877;51.992;4.504;2022-08-19T14:27:56;1.83;;;1.83;;
71176;SDS011;58877;51.992;4.504;2022-08-19T14:30:24;1.53;;;1.53;;
71176;SDS011;58877;51.992;4.504;2022-08-19T14:32:55;1.56;;;1.56;;
71176;SDS011;58877;51.992;4.504;2022-08-19T14:35:23;1.48;;;1.48;;
71176;SDS011;58877;51.992;4.504;2022-08-19T14:37:53;1.34;;;1.34;;
71176;SDS011;58877;51.992;4.504;2022-08-19T14:40:20;1.31;;;1.31;;
71176;SDS011;58877;51.992;4.504;2022-08-19T14:42:51;1.08;;;1.08;;
71176;SDS011;58877;51.992;4.504;2022-08-19T14:45:24;1.40;;;1.40;;
71176;SDS011;58877;51.992;4.504;2022-08-19T14:47:52;1.29;;;1.29;;
71176;SDS011;58877;51.992;4.504;2022-08-19T14:50:18;1.33;;;1.33;;
71176;SDS011;58877;51.992;4.504;2022-08-19T14:52:48;1.34;;;1.34;;
71176;SDS011;58877;51.992;4.504;2022-08-19T14:55:14;1.59;;;1.59;;
71176;SDS011;58877;51.992;4.504;2022-08-19T14:57:42;1.37;;;1.37;;
71176;SDS011;58877;51.992;4.504;2022-08-19T15:00:09;1.63;;;1.63;;
71176;SDS011;58877;51.992;4.504;2022-08-19T15:02:39;1.53;;;1.53;;
71176;SDS011;58877;51.992;4.504;2022-08-19T15:05:05;1.64;;;1.64;;
71176;SDS011;58877;51.992;4.504;2022-08-19T15:07:31;1.71;;;1.71;;